»·PEaware :: N510CJ KFOT-77S

N510CJ :: KFOT-77S

FLIGHT INFORMATION

Flight Status: Arrived
Operator: Privately registered:
United States
More flights under this callsign
Pilot: John G. (2195)
Aircraft: CESSNA 510 CITATION MUSTANG
(C510)
More flights by this aircraft type
Origin: KFOT Rohnerville
United States
Destination: 77S Hobby
United States
More flights between these airports :: More routes between these airports
Route: OED
File this flight plan on PilotEdge
Remarks:
Altitude:
(Current/Filed)
24,000ft
Speed:
(Current/Filed)
340kts
Departed: 09-Dec-17 01:32 PM
Arrived: 09-Dec-17 02:22 PM
Distance/Time
Traveled:
209nm/0:49
Distance/Time
To Go:
Arrived

Flight Plot

Page will automatically refresh every two minutes.

Flight plan parsing failed; only flown route is shown


Map Options




Map Legend


Flown Route
Filed Route
Departure Airport
Arrival Airport
Navaid (VOR, NDB)
Fix

Horizontal Profiles

Position Reports

Time Latitude Longitude Heading Altitude Ground
Speed
09-Dec-17 13:30 40.554755 -124.131777 99 357ft 0kts
09-Dec-17 13:31 40.554755 -124.131776 99 357ft 0kts
09-Dec-17 13:32 40.554755 -124.131776 99 357ft 0kts
09-Dec-17 13:33 40.554388 -124.132075 269 357ft 8kts
09-Dec-17 13:34 40.554552 -124.132498 308 357ft 0kts
09-Dec-17 13:35 40.554801 -124.132913 306 357ft 10kts
09-Dec-17 13:36 40.557451 -124.137452 305 357ft 0kts
09-Dec-17 13:37 40.557155 -124.138117 141 357ft 2kts
09-Dec-17 13:38 40.542899 -124.114624 129 1065ft 150kts
09-Dec-17 13:39 40.543978 -124.062612 23 3985ft 176kts
09-Dec-17 13:40 40.587827 -124.040390 27 6897ft 170kts
09-Dec-17 13:41 40.631851 -124.012978 24 9217ft 180kts
09-Dec-17 13:42 40.682248 -123.983597 23 11136ft 208kts
09-Dec-17 13:43 40.736421 -123.952274 23 13310ft 217kts
09-Dec-17 13:44 40.793568 -123.919203 23 15389ft 229kts
09-Dec-17 13:45 40.853065 -123.884716 23 17409ft 239kts
09-Dec-17 13:46 40.914768 -123.848878 23 19339ft 245kts
09-Dec-17 13:47 40.978665 -123.811686 23 21060ft 252kts
09-Dec-17 13:48 41.043555 -123.773848 23 22656ft 258kts
09-Dec-17 13:49 41.110773 -123.734571 22 24036ft 268kts
09-Dec-17 13:50 41.184219 -123.691600 22 24392ft 313kts
09-Dec-17 13:51 41.268743 -123.642051 22 24393ft 348kts
09-Dec-17 13:52 41.360095 -123.588309 22 24410ft 366kts
09-Dec-17 13:53 41.451303 -123.534473 22 24422ft 348kts
09-Dec-17 13:54 41.539162 -123.482413 22 24433ft 345kts
09-Dec-17 13:55 41.627257 -123.430055 22 24421ft 345kts
09-Dec-17 13:56 41.715007 -123.377735 22 24427ft 345kts
09-Dec-17 13:57 41.802723 -123.325280 23 24465ft 345kts
09-Dec-17 13:58 41.888969 -123.273553 23 24477ft 346kts
09-Dec-17 13:59 41.978532 -123.219934 22 24479ft 343kts
09-Dec-17 14:00 42.065489 -123.167160 23 24481ft 346kts
09-Dec-17 14:00 42.138495 -123.122433 23 24480ft 346kts
09-Dec-17 14:02 42.240699 -123.060075 22 24480ft 345kts
09-Dec-17 14:02 42.313882 -123.015348 23 24481ft 345kts
09-Dec-17 14:03 42.401365 -122.961758 22 24481ft 345kts
09-Dec-17 14:05 42.504934 -122.904560 4 24482ft 342kts
09-Dec-17 14:05 42.583496 -122.908333 351 24477ft 339kts
09-Dec-17 14:06 42.679617 -122.921083 352 23130ft 356kts
09-Dec-17 14:07 42.777814 -122.930525 353 21341ft 348kts
09-Dec-17 14:08 42.873543 -122.937816 354 19543ft 341kts
09-Dec-17 14:09 42.966846 -122.944192 354 17745ft 331kts
09-Dec-17 14:10 43.057711 -122.950115 354 15941ft 321kts
09-Dec-17 14:11 43.145312 -122.955954 355 14171ft 309kts
09-Dec-17 14:12 43.229544 -122.961584 355 12634ft 295kts
09-Dec-17 14:13 43.310172 -122.966964 355 11429ft 286kts
09-Dec-17 14:14 43.389353 -122.972664 355 10231ft 284kts
09-Dec-17 14:15 43.468380 -122.978913 356 9028ft 283kts
09-Dec-17 14:16 43.546761 -122.985638 356 7834ft 282kts
09-Dec-17 14:17 43.623332 -122.992662 356 7041ft 272kts
09-Dec-17 14:18 43.696265 -123.000345 355 5705ft 240kts
09-Dec-17 14:19 43.757528 -123.008721 355 4202ft 203kts
09-Dec-17 14:20 43.811098 -123.016473 355 2638ft 186kts
09-Dec-17 14:21 43.857337 -123.023369 355 1957ft 133kts
09-Dec-17 14:22 43.887567 -123.028029 356 2013ft 113kts
09-Dec-17 14:23 43.919683 -123.032205 354 1983ft 115kts
09-Dec-17 14:24 43.951305 -123.030777 7 1986ft 107kts
09-Dec-17 14:25 43.977903 -123.016743 77 1390ft 115kts
09-Dec-17 14:26 43.953288 -123.009280 183 945ft 108kts
09-Dec-17 14:27 43.928647 -123.006410 174 542ft 25kts
09-Dec-17 14:28 43.926627 -123.006289 222 542ft 4kts
09-Dec-17 14:29 43.929082 -123.007197 355 542ft 10kts
09-Dec-17 14:30 43.930837 -123.007519 352 542ft 0kts
09-Dec-17 14:31 43.930837 -123.007519 352 542ft 0kts
09-Dec-17 14:32 43.930837 -123.007519 352 542ft 0kts
09-Dec-17 14:33 43.930837 -123.007519 352 542ft 0kts
09-Dec-17 14:34 43.930837 -123.007519 352 542ft 0kts
09-Dec-17 14:35 43.930837 -123.007519 352 542ft 0kts
09-Dec-17 14:36 43.930837 -123.007519 352 542ft 0kts
09-Dec-17 14:37 43.930837 -123.007519 352 542ft 0kts
09-Dec-17 14:38 43.930837 -123.007519 352 542ft 0kts
09-Dec-17 14:39 43.930837 -123.007519 352 542ft 0kts
09-Dec-17 14:40 43.930837 -123.007519 352 542ft 0kts
09-Dec-17 14:41 43.930837 -123.007519 352 542ft 0kts

Navigation Log

Ident Type
Flight plan parsing failed, navigation log unavailable